Terminal Aerodrome Forecast
Issued by NWS Charleston, WV

Current Version | Previous Version | Graphics & Text | Print | Product List | Glossary On
Versions: 1 2 3 4 5 6 7 8 9 10 11 12 13 14 15 16 17 18 19 20 21 22 23 24
000
FTUS41 KRLX 181720
TAFCRW
TAF
KCRW 181720Z 1818/1918 26008KT P6SM SCT080
     FM182000 23008G15KT P6SM BKN080
     FM190200 24012G27KT P6SM -SHRA OVC050
     FM190500 26013G27KT P6SM BKN030
     FM191700 29009G20KT P6SM BKN020=

USA.gov is the U.S. government's official web portal to all federal, state and local government web resources and services.